sensor_id;sensor_type;location;lat;lon;timestamp;pressure;altitude;pressure_sealevel;temperature;humidity
71642;BME280;60657;50.122;14.468;2022-10-16T00:00:41;98235.39483389056;;;16.099794003204394;85.33287556267643
71642;BME280;60657;50.122;14.468;2022-10-16T00:03:43;98228.68160432855;;;16.11848630502785;85.3366903181506
71642;BME280;60657;50.122;14.468;2022-10-16T00:06:46;98231.08381106792;;;16.158541237506675;85.27374685282673
71642;BME280;60657;50.122;14.468;2022-10-16T00:09:47;98213.45499839039;;;16.1612115663386;85.1173418783856
71642;BME280;60657;50.122;14.468;2022-10-16T00:12:48;98218.51856021477;;;16.126497291523613;85.15358205539025
71642;BME280;60657;50.122;14.468;2022-10-16T00:15:49;98219.19380318355;;;16.214618142977038;84.74540321965362
71642;BME280;60657;50.122;14.468;2022-10-16T00:18:50;98214.91659605101;;;16.27336537727932;84.69008926527809
71642;BME280;60657;50.122;14.468;2022-10-16T00:21:51;98219.11827623419;;;16.26268406195163;84.60044251163501
71642;BME280;60657;50.122;14.468;2022-10-16T00:24:52;98231.76032944558;;;16.225299458304725;84.61760891126879
71642;BME280;60657;50.122;14.468;2022-10-16T00:27:53;98235.0615956561;;;16.26535439078355;84.57564660105287
71642;BME280;60657;50.122;14.468;2022-10-16T00:30:54;98224.18280491629;;;16.257343404287788;84.43450064850843
71642;BME280;60657;50.122;14.468;2022-10-16T00:33:55;98231.76032944558;;;16.18791485465782;84.57946135652705
71642;BME280;60657;50.122;14.468;2022-10-16T00:36:57;98236.07297819854;;;16.18791485465782;84.73968108644236
71642;BME280;60657;50.122;14.468;2022-10-16T00:39:58;98242.60178105334;;;16.26268406195163;84.50125886930648
71642;BME280;60657;50.122;14.468;2022-10-16T00:42:59;98249.3165424277;;;16.241321431296257;84.59281300068666
71642;BME280;60657;50.122;14.468;2022-10-16T00:46:00;98247.59141092385;;;16.26535439078355;84.54512855725947
71642;BME280;60657;50.122;14.468;2022-10-16T00:49:04;98251.75575202776;;;16.254673075455862;84.4554818036164
71642;BME280;60657;50.122;14.468;2022-10-16T00:52:08;98250.10487346763;;;16.278706034943163;84.39253833829251
71642;BME280;60657;50.122;14.468;2022-10-16T00:55:11;98247.36654166986;;;16.340123598077362;84.11215381094073
71642;BME280;60657;50.122;14.468;2022-10-16T00:58:13;98246.61647388656;;;16.313420309758143;84.02441443503471
71642;BME280;60657;50.122;14.468;2022-10-16T01:01:14;98254.08257590154;;;16.345464255741206;83.9366750591287
71642;BME280;60657;50.122;14.468;2022-10-16T01:04:15;98249.95554624674;;;16.300068665598538;84.03967345693141
71642;BME280;60657;50.122;14.468;2022-10-16T01:07:19;98250.81841811322;;;16.313420309758143;83.93286030365454
71642;BME280;60657;50.122;14.468;2022-10-16T01:10:33;98258.95972568232;;;16.40154116121157;83.73449301899748
71642;BME280;60657;50.122;14.468;2022-10-16T01:13:41;98251.34151244139;;;16.446936751354237;83.48462653543908
71642;BME280;60657;50.122;14.468;2022-10-16T01:16:49;98249.4605391587;;;16.513694972152287;83.22522316319524
71642;BME280;60657;50.122;14.468;2022-10-16T01:20:03;98254.33464236124;;;16.599145494773786;82.87426565957122
71642;BME280;60657;50.122;14.468;2022-10-16T01:23:15;98255.94625048718;;;16.567101548790724;82.68734264133668
71642;BME280;60657;50.122;14.468;2022-10-16T01:26:31;98247.57665235906;;;16.641870756084536;82.55954833295186
71642;BME280;60657;50.122;14.468;2022-10-16T01:29:48;98244.86471220622;;;16.66590371557183;82.44892042420081
71642;BME280;60657;50.122;14.468;2022-10-16T01:32:55;98256.73248012239;;;16.583123521782255;82.60532539864195
71642;BME280;60657;50.122;14.468;2022-10-16T01:36:05;98251.70272633826;;;16.609826810101474;82.46227206836042
71642;BME280;60657;50.122;14.468;2022-10-16T01:39:13;98244.23669630942;;;16.540398260471505;82.60723277637904
71642;BME280;60657;50.122;14.468;2022-10-16T01:42:22;98242.62548010027;;;16.524376287479974;82.715953307393
71642;BME280;60657;50.122;14.468;2022-10-16T01:45:31;98246.86848986296;;;16.492332341496912;82.92004272526131
71642;BME280;60657;50.122;14.468;2022-10-16T01:48:33;98249.49914317219;;;16.377508201724268;83.0974288548104
71642;BME280;60657;50.122;14.468;2022-10-16T01:51:37;98251.3033278994;;;16.446936751354237;83.01350423437857
71642;BME280;60657;50.122;14.468;2022-10-16T01:54:40;98248.75078933641;;;16.428244449530787;83.06309605554284
71642;BME280;60657;50.122;14.468;2022-10-16T01:57:47;98254.7190697296;;;16.430914778362705;82.96963454642557
71642;BME280;60657;50.122;14.468;2022-10-16T02:00:52;98256.36981668482;;;16.441596093690393;82.91622796978713
71642;BME280;60657;50.122;14.468;2022-10-16T02:03:57;98257.30889941777;;;16.377508201724268;83.17753871976807
71642;BME280;60657;50.122;14.468;2022-10-16T02:07:04;98254.08257590154;;;16.337453269245444;83.34729533836881
71642;BME280;60657;50.122;14.468;2022-10-16T02:10:07;98248.19190088342;;;16.329442282749675;83.20042725261311
71642;BME280;60657;50.122;14.468;2022-10-16T02:13:10;98253.14413050233;;;16.40154116121157;82.99633783474479
71642;BME280;60657;50.122;14.468;2022-10-16T02:16:23;98252.31875005037;;;16.388189517051956;83.10505836575875
71642;BME280;60657;50.122;14.468;2022-10-16T02:19:34;98251.71853243673;;;16.300068665598538;83.25192645151446
71642;BME280;60657;50.122;14.468;2022-10-16T02:22:37;98247.51680530197;;;16.278706034943163;83.38353551537347
71642;BME280;60657;50.122;14.468;2022-10-16T02:25:42;98245.0032275357;;;16.300068665598538;83.31677729457542
71642;BME280;60657;50.122;14.468;2022-10-16T02:28:48;98243.38986900046;;;16.28938735027085;83.32822156099795
71642;BME280;60657;50.122;14.468;2022-10-16T02:31:58;98243.53853632354;;;16.233310444800487;83.45983062485695
71642;BME280;60657;50.122;14.468;2022-10-16T02:35:04;98246.98765199601;;;16.21995880064088;83.64675364309147
71642;BME280;60657;50.122;14.468;2022-10-16T02:38:11;98252.87587439296;;;16.235980773632413;83.56282902265964
71642;BME280;60657;50.122;14.468;2022-10-16T02:41:15;98256.93029678406;;;16.278706034943163;83.36827649347677
71642;BME280;60657;50.122;14.468;2022-10-16T02:44:16;98256.93029678406;;;16.252002746623944;83.38162813763638
71642;BME280;60657;50.122;14.468;2022-10-16T02:47:17;98249.39048525902;;;16.23064011596857;83.43121995880064
71642;BME280;60657;50.122;14.468;2022-10-16T02:50:18;98257.11273940568;;;16.16388189517052;83.64484626535439
71642;BME280;60657;50.122;14.468;2022-10-16T02:53:19;98268.77989022253;;;16.174563210498206;83.44647898069734
71642;BME280;60657;50.122;14.468;2022-10-16T02:56:21;98259.62572077724;;;16.14518959334707;83.5990691996643
71642;BME280;60657;50.122;14.468;2022-10-16T02:59:22;98267.84545296615;;;16.190585183489738;83.32440680552376
71642;BME280;60657;50.122;14.468;2022-10-16T03:02:23;98277.14487639653;;;16.174563210498206;83.3358510719463
71642;BME280;60657;50.122;14.468;2022-10-16T03:05:24;98279.54984895172;;;16.16388189517052;83.4083314259556
71642;BME280;60657;50.122;14.468;2022-10-16T03:08:25;98281.27348739782;;;16.20393682764935;83.3358510719463
71642;BME280;60657;50.122;14.468;2022-10-16T03:11:26;98287.95147527424;;;16.174563210498206;83.29388876173037
71642;BME280;60657;50.122;14.468;2022-10-16T03:14:27;98287.91550619586;;;16.20393682764935;83.29770351720455
71642;BME280;60657;50.122;14.468;2022-10-16T03:17:28;98288.9202942306;;;16.126497291523613;83.57427328908217
71642;BME280;60657;50.122;14.468;2022-10-16T03:20:30;98291.3621157795;;;16.150530251010913;83.4369420920119
71642;BME280;60657;50.122;14.468;2022-10-16T03:23:31;98305.43742162095;;;16.209277485313194;83.20996414129854
71642;BME280;60657;50.122;14.468;2022-10-16T03:26:32;98304.5038340127;;;16.27336537727932;83.14892805371176
71642;BME280;60657;50.122;14.468;2022-10-16T03:29:33;98306.9814279219;;;16.28938735027085;82.92004272526131
71642;BME280;60657;50.122;14.468;2022-10-16T03:32:34;98305.25743900193;;;16.345464255741206;82.6854352635996
71642;BME280;60657;50.122;14.468;2022-10-16T03:35:35;98304.28607126312;;;16.353475242236975;82.66063935301747
71642;BME280;60657;50.122;14.468;2022-10-16T03:38:36;98311.82796371641;;;16.396200503547725;82.63775082017243
71642;BME280;60657;50.122;14.468;2022-10-16T03:41:37;98310.9656882879;;;16.40154116121157;82.74837872892347
71642;BME280;60657;50.122;14.468;2022-10-16T03:44:38;98318.6161690697;;;16.300068665598538;83.11841000991836
71642;BME280;60657;50.122;14.468;2022-10-16T03:47:39;98315.49125042868;;;16.18791485465782;83.7325856412604
71642;BME280;60657;50.122;14.468;2022-10-16T03:50:40;98313.11949356041;;;16.17990386816205;83.75738155184253
71642;BME280;60657;50.122;14.468;2022-10-16T03:53:42;98318.11077004508;;;16.15320057984283;84.16556038757916
71642;BME280;60657;50.122;14.468;2022-10-16T03:56:42;98313.94548666016;;;16.155870908674757;84.25520714122224
71642;BME280;60657;50.122;14.468;2022-10-16T03:59:44;98303.92797584078;;;16.16388189517052;84.47074082551309
71642;BME280;60657;50.122;14.468;2022-10-16T04:02:45;98300.6948732147;;;16.147859922178988;84.72060730907148
71642;BME280;60657;50.122;14.468;2022-10-16T04:05:46;98300.8697459189;;;16.07843137254902;84.59472037842374
71642;BME280;60657;50.122;14.468;2022-10-16T04:08:47;98316.01452901191;;;16.065079728389414;84.7930876630808
71642;BME280;60657;50.122;14.468;2022-10-16T04:11:48;98320.38295035364;;;15.971618219272145;85.15167467765316
71642;BME280;60657;50.122;14.468;2022-10-16T04:14:49;98330.46543913997;;;15.888838025482563;85.34431982909895
71642;BME280;60657;50.122;14.468;2022-10-16T04:17:51;98342.13393036943;;;15.998321507591363;85.30617227435721
71642;BME280;60657;50.122;14.468;2022-10-16T04:20:52;98338.79525170369;;;15.904859998474095;85.46257724879835
71642;BME280;60657;50.122;14.468;2022-10-16T04:23:54;98341.2409780139;;;16.00099183642329;85.56366826886396
71642;BME280;60657;50.122;14.468;2022-10-16T04:26:55;98352.81021820227;;;16.04371709773404;85.34241245136187
71642;BME280;60657;50.122;14.468;2022-10-16T04:29:56;98349.43752525124;;;16.027695124742507;85.34431982909895
71642;BME280;60657;50.122;14.468;2022-10-16T04:32:57;98344.31033945658;;;16.089112687876707;85.1154345006485
71642;BME280;60657;50.122;14.468;2022-10-16T04:35:59;98346.13209083107;;;15.98496986343175;85.36148622873274
71642;BME280;60657;50.122;14.468;2022-10-16T04:39:02;98351.22423976983;;;16.00099183642329;85.42442969405661
71642;BME280;60657;50.122;14.468;2022-10-16T04:42:04;98346.13209083107;;;15.974288548104063;85.56366826886396
71642;BME280;60657;50.122;14.468;2022-10-16T04:45:05;98352.0172806198;;;15.995651178759438;85.44731822690166
71642;BME280;60657;50.122;14.468;2022-10-16T04:48:07;98343.68659107106;;;16.011673151750976;85.63614862287328
71642;BME280;60657;50.122;14.468;2022-10-16T04:51:08;98350.46427355439;;;15.944914930952926;85.63805600061036
71642;BME280;60657;50.122;14.468;2022-10-16T04:54:09;98349.57142422801;;;15.939574273289082;85.72007324330511
71642;BME280;60657;50.122;14.468;2022-10-16T04:57:11;98354.72848148769;;;15.920881971465626;85.65140764476998
71642;BME280;60657;50.122;14.468;2022-10-16T05:00:12;98353.00972142526;;;15.966277561608301;85.87457084000916
71642;BME280;60657;50.122;14.468;2022-10-16T05:03:14;98355.32293010237;;;16.025024795910582;85.6170748455024
71642;BME280;60657;50.122;14.468;2022-10-16T05:06:15;98350.2638927427;;;16.057068741893644;85.44159609369039
71642;BME280;60657;50.122;14.468;2022-10-16T05:09:16;98351.95027338222;;;16.027695124742507;85.59990844586862
71642;BME280;60657;50.122;14.468;2022-10-16T05:12:17;98346.9920213308;;;15.960936903944457;85.81353475242237
71642;BME280;60657;50.122;14.468;2022-10-16T05:15:18;98342.0003777969;;;15.974288548104063;85.7486839093614
71642;BME280;60657;50.122;14.468;2022-10-16T05:18:19;98345.30574111333;;;15.998321507591363;85.74677653162432
71642;BME280;60657;50.122;14.468;2022-10-16T05:21:20;98346.19913846107;;;15.98496986343175;85.75631342030975
71642;BME280;60657;50.122;14.468;2022-10-16T05:24:22;98356.18277174323;;;15.96894789044022;85.82116426337072
71642;BME280;60657;50.122;14.468;2022-10-16T05:27:23;98352.0172806198;;;15.96894789044022;85.77729457541771
71642;BME280;60657;50.122;14.468;2022-10-16T05:30:24;98361.1079535548;;;16.022354467078664;85.50453955901426
71642;BME280;60657;50.122;14.468;2022-10-16T05:33:25;98373.57217639798;;;16.083772030212863;85.41680018310826
71642;BME280;60657;50.122;14.468;2022-10-16T05:36:27;98380.25138691919;;;16.08644235904479;85.34813458457313
71642;BME280;60657;50.122;14.468;2022-10-16T05:39:28;98375.19166301374;;;16.155870908674757;85.06775005722133
71642;BME280;60657;50.122;14.468;2022-10-16T05:42:29;98387.72404834187;;;16.14518959334707;84.94186312657358
71642;BME280;60657;50.122;14.468;2022-10-16T05:45:30;98397.77690936108;;;16.155870908674757;84.95902952620737
71642;BME280;60657;50.122;14.468;2022-10-16T05:48:32;98390.3368666914;;;16.05973907072557;85.08300907911803
71642;BME280;60657;50.122;14.468;2022-10-16T05:51:33;98394.47018821014;;;16.105134660868238;85.1154345006485
71642;BME280;60657;50.122;14.468;2022-10-16T05:54:34;98391.13039974889;;;16.089112687876707;85.07728694590676
71642;BME280;60657;50.122;14.468;2022-10-16T05:57:36;98390.30375218604;;;16.091783016708632;85.08300907911803
71642;BME280;60657;50.122;14.468;2022-10-16T06:00:37;98384.41765188778;;;16.115815976195925;85.20889600976578
71642;BME280;60657;50.122;14.468;2022-10-16T06:03:40;98391.99018464168;;;16.169222552834363;85.12878614480812
71642;BME280;60657;50.122;14.468;2022-10-16T06:06:42;98411.20265500591;;;16.131837949187457;85.10399023422599
71642;BME280;60657;50.122;14.468;2022-10-16T06:09:44;98411.26805164796;;;16.155870908674757;85.10399023422599
71642;BME280;60657;50.122;14.468;2022-10-16T06:12:48;98421.19016329014;;;16.20660715648127;84.68245975432974
71642;BME280;60657;50.122;14.468;2022-10-16T06:15:49;98419.27198131665;;;16.27336537727932;84.61951628900587
71642;BME280;60657;50.122;14.468;2022-10-16T06:18:50;98425.81918562923;;;16.36682688639658;84.0701915007248
71642;BME280;60657;50.122;14.468;2022-10-16T06:21:52;98423.13546506467;;;16.438925764858475;83.84130617227436
71642;BME280;60657;50.122;14.468;2022-10-16T06:24:53;98421.55013432691;;;16.412222476539256;83.76310368505379
71642;BME280;60657;50.122;14.468;2022-10-16T06:27:55;98429.95317345693;;;16.406881818875412;83.91950865949492
71642;BME280;60657;50.122;14.468;2022-10-16T06:30:58;98427.3373473799;;;16.454947737850006;83.79934386205844
71642;BME280;60657;50.122;14.468;2022-10-16T06:34:00;98435.60509559517;;;16.42557412069886;83.87563897154192
71642;BME280;60657;50.122;14.468;2022-10-16T06:37:01;98439.0482584438;;;16.43358510719463;83.74212252994583
71642;BME280;60657;50.122;14.468;2022-10-16T06:40:05;98443.14862176831;;;16.46028839551385;83.41405355916686
71642;BME280;60657;50.122;14.468;2022-10-16T06:43:07;98462.40425719725;;;16.529716945143818;83.22713054093232
71642;BME280;60657;50.122;14.468;2022-10-16T06:46:09;98467.43339724792;;;16.508354314488443;83.56092164492256
71642;BME280;60657;50.122;14.468;2022-10-16T06:49:12;98468.98670963381;;;16.60448615243763;83.23476005188067
71642;BME280;60657;50.122;14.468;2022-10-16T06:52:13;98463.78682504053;;;16.6498817425803;83.08979934386205
71642;BME280;60657;50.122;14.468;2022-10-16T06:55:15;98472.19313550975;;;16.633859769588767;82.83611810482948
71642;BME280;60657;50.122;14.468;2022-10-16T06:58:16;98464.44120435229;;;16.68993667505913;83.02685587853819
71642;BME280;60657;50.122;14.468;2022-10-16T07:01:17;98464.40642995054;;;16.735332265201798;82.54428931105517
71642;BME280;60657;50.122;14.468;2022-10-16T07:04:21;98473.02014356204;;;16.660563057907986;83.14892805371176
71642;BME280;60657;50.122;14.468;2022-10-16T07:07:22;98474.36410485949;;;16.831464103150985;82.42793926909285
71642;BME280;60657;50.122;14.468;2022-10-16T07:10:24;98478.42882989682;;;16.86083772030213;82.38406958113985
71642;BME280;60657;50.122;14.468;2022-10-16T07:13:25;98487.56038299986;;;16.93827725642786;82.43747615777829
71642;BME280;60657;50.122;14.468;2022-10-16T07:16:27;98491.58949594351;;;16.97833218890669;81.98924238956283
71642;BME280;60657;50.122;14.468;2022-10-16T07:19:30;98498.24076307027;;;16.975661860074766;82.48516060120546
71642;BME280;60657;50.122;14.468;2022-10-16T07:22:31;98500.61512547026;;;17.037079423208972;81.98733501182573
71642;BME280;60657;50.122;14.468;2022-10-16T07:25:32;98505.93013719025;;;16.898222323949035;82.05027847714962
71642;BME280;60657;50.122;14.468;2022-10-16T07:28:33;98501.54880179938;;;16.972991531242847;81.58487830930038
71642;BME280;60657;50.122;14.468;2022-10-16T07:31:35;98504.0298678255;;;16.93560692759594;81.37888151369498
71642;BME280;60657;50.122;14.468;2022-10-16T07:34:36;98504.9276621221;;;16.96498054474708;81.52956435492484
71642;BME280;60657;50.122;14.468;2022-10-16T07:37:38;98519.19920435778;;;16.983672846570535;81.86907759212635
71642;BME280;60657;50.122;14.468;2022-10-16T07:40:39;98511.54417712538;;;16.983672846570535;81.6840619516289
71642;BME280;60657;50.122;14.468;2022-10-16T07:43:40;98521.61062648689;;;16.983672846570535;81.4036774242771
71642;BME280;60657;50.122;14.468;2022-10-16T07:46:46;98527.40083046602;;;17.07446402685588;81.34073395895324
71642;BME280;60657;50.122;14.468;2022-10-16T07:49:47;98522.26095129488;;;17.127870603494316;81.29114213778897
71642;BME280;60657;50.122;14.468;2022-10-16T07:52:48;98512.9844052418;;;17.15724422064546;81.56008239871824
71642;BME280;60657;50.122;14.468;2022-10-16T07:55:49;98516.0020535271;;;17.32814526588846;81.72220950637065
71642;BME280;60657;50.122;14.468;2022-10-16T07:58:51;98519.6900266896;;;17.485694666971845;81.13473716334784
71642;BME280;60657;50.122;14.468;2022-10-16T08:01:53;98521.30592711882;;;17.57381551842527;80.78187228198672
71642;BME280;60657;50.122;14.468;2022-10-16T08:04:54;98527.05604548873;;;17.63256275272755;80.42137788967727
71642;BME280;60657;50.122;14.468;2022-10-16T08:08:02;98523.7485734674;;;17.584496833752958;80.28976882581827
71642;BME280;60657;50.122;14.468;2022-10-16T08:11:03;98527.35749376973;;;17.485694666971845;80.4023041123064
71642;BME280;60657;50.122;14.468;2022-10-16T08:14:05;98514.05216813662;;;17.44563973449302;80.67696650644693
71642;BME280;60657;50.122;14.468;2022-10-16T08:17:06;98510.02932459436;;;17.384222171358815;80.83527885862516
71642;BME280;60657;50.122;14.468;2022-10-16T08:20:08;98516.60739584458;;;17.264057373922334;80.98405432211796
71642;BME280;60657;50.122;14.468;2022-10-16T08:23:11;98524.0869535313;;;17.282749675745784;80.91157396810864
71642;BME280;60657;50.122;14.468;2022-10-16T08:26:13;98525.70359398144;;;17.325474937056534;80.39848935683223
71642;BME280;60657;50.122;14.468;2022-10-16T08:29:15;98527.35749376973;;;17.426947432669564;79.81101701380942
71642;BME280;60657;50.122;14.468;2022-10-16T08:32:16;98527.20747471173;;;17.437628747997252;80.05325398641948
71642;BME280;60657;50.122;14.468;2022-10-16T08:35:17;98530.96038110727;;;17.696650644693676;79.51537346456092
71642;BME280;60657;50.122;14.468;2022-10-16T08:38:18;98541.4754880529;;;17.811474784466313;78.85732814526588
71642;BME280;60657;50.122;14.468;2022-10-16T08:41:22;98529.50462365398;;;17.859540703440906;79.14915693904021
71642;BME280;60657;50.122;14.468;2022-10-16T08:44:54;98535.33145707197;;;17.886243991760125;79.07476920729381
71642;BME280;60657;50.122;14.468;2022-10-16T08:48:15;98543.55856392818;;;17.961013199053937;78.81345845731289
71642;BME280;60657;50.122;14.468;2022-10-16T08:51:23;98560.4141041754;;;17.80613412680247;79.31700617990387
71642;BME280;60657;50.122;14.468;2022-10-16T08:54:28;98567.93551538284;;;17.899595635919738;78.85160601205463
71642;BME280;60657;50.122;14.468;2022-10-16T08:57:34;98568.6830839578;;;17.99038681620508;78.8401617456321
71642;BME280;60657;50.122;14.468;2022-10-16T09:00:36;98558.15562431577;;;18.217364766918443;78.13633936064699
71642;BME280;60657;50.122;14.468;2022-10-16T09:03:42;98555.38665932725;;;18.252079041733424;77.18455786984055
71642;BME280;60657;50.122;14.468;2022-10-16T09:06:57;98550.13412456811;;;18.342870222018767;77.40581368734264
71642;BME280;60657;50.122;14.468;2022-10-16T09:10:15;98552.18781382346;;;18.497749294270236;76.34149691004806
71642;BME280;60657;50.122;14.468;2022-10-16T09:13:33;98542.08600530247;;;18.82619974059663;76.0267795834287
71642;BME280;60657;50.122;14.468;2022-10-16T09:16:45;98550.03051409015;;;18.967727168688484;75.05592431525139
71642;BME280;60657;50.122;14.468;2022-10-16T09:19:55;98551.26785576707;;;19.077210650797284;74.67635614557106
71642;BME280;60657;50.122;14.468;2022-10-16T09:23:14;98553.08585164705;;;19.336232547493708;74.24719615472648
71642;BME280;60657;50.122;14.468;2022-10-16T09:26:18;98546.82269458497;;;19.461738002594032;73.52429999237049
71642;BME280;60657;50.122;14.468;2022-10-16T09:29:20;98556.00425017491;;;19.456397344930195;73.6101319905394
71642;BME280;60657;50.122;14.468;2022-10-16T09:32:22;98543.61470240208;;;20.134660868238342;72.29785610742351
71642;BME280;60657;50.122;14.468;2022-10-16T09:35:26;98535.71384360734;;;20.556572823682004;69.44823376821546
71642;BME280;60657;50.122;14.468;2022-10-16T09:38:34;98546.29846349976;;;21.280231937132825;69.14496070801862
71642;BME280;60657;50.122;14.468;2022-10-16T09:41:38;98539.164357032;;;22.265583276111997;66.25146868085756
71642;BME280;60657;50.122;14.468;2022-10-16T09:44:47;98548.51346840934;;;22.698176546883346;63.085221637293046
71642;BME280;60657;50.122;14.468;2022-10-16T09:47:50;98534.2296293725;;;23.120088502327008;62.5912108033875
71642;BME280;60657;50.122;14.468;2022-10-16T09:50:56;98530.43855880992;;;23.328374151216906;60.94323643854429
71642;BME280;60657;50.122;14.468;2022-10-16T09:53:59;98548.55621350903;;;23.01861600671397;61.57267109178302
71642;BME280;60657;50.122;14.468;2022-10-16T09:57:05;98545.39973720883;;;23.517967498283355;60.496910048065914
71642;BME280;60657;50.122;14.468;2022-10-16T10:00:09;98554.81796398669;;;23.42717631799802;60.65903715571832
71642;BME280;60657;50.122;14.468;2022-10-16T10:03:11;98553.53285151048;;;23.114747844663157;60.84405279621576
71642;BME280;60657;50.122;14.468;2022-10-16T10:06:16;98540.69892465905;;;23.571374074921792;60.23369192034791
71642;BME280;60657;50.122;14.468;2022-10-16T10:09:23;98541.45238916624;;;23.865110246433204;59.60616464484626
71642;BME280;60657;50.122;14.468;2022-10-16T10:12:27;98546.65710465299;;;24.26031891355764;59.241855497062645
71642;BME280;60657;50.122;14.468;2022-10-16T10:15:33;98537.26207874333;;;24.337758449683378;58.391165026321815
71642;BME280;60657;50.122;14.468;2022-10-16T10:18:42;98547.5045298271;;;24.837109941252763;57.34019989318685
71642;BME280;60657;50.122;14.468;2022-10-16T10:21:43;98532.4776600534;;;24.818417639429313;56.140459296559094
71642;BME280;60657;50.122;14.468;2022-10-16T10:24:54;98533.05565952756;;;24.954604409857325;56.067978942549786
71642;BME280;60657;50.122;14.468;2022-10-16T10:28:01;98537.89644842217;;;24.4392309452964;56.32356755931945
71642;BME280;60657;50.122;14.468;2022-10-16T10:31:20;98535.72853968854;;;24.514000152590214;56.87670710307469
71642;BME280;60657;50.122;14.468;2022-10-16T10:34:35;98535.93086810337;;;24.177538719768066;56.907225146868086
71642;BME280;60657;50.122;14.468;2022-10-16T10:37:53;98536.2945394483;;;23.675516899366755;58.58190280003052
71642;BME280;60657;50.122;14.468;2022-10-16T10:41:11;98540.82383345504;;;23.16548409246967;60.43205920500496
71642;BME280;60657;50.122;14.468;2022-10-16T10:44:34;98527.60429023679;;;23.48325322346838;59.74349584191653
71642;BME280;60657;50.122;14.468;2022-10-16T10:47:54;98521.78175440316;;;23.841077286945904;58.98245212481879
71642;BME280;60657;50.122;14.468;2022-10-16T10:51:12;98525.20854333058;;;23.48325322346838;59.84077210650797
71642;BME280;60657;50.122;14.468;2022-10-16T10:54:25;98524.96231332002;;;22.869077592126345;61.629892423895626
71642;BME280;60657;50.122;14.468;2022-10-16T10:57:36;98525.57428162347;;;23.06668192568857;61.4582284275578
71642;BME280;60657;50.122;14.468;2022-10-16T11:00:51;98525.85587663949;;;23.021286335545895;61.29610131990539
71642;BME280;60657;50.122;14.468;2022-10-16T11:04:10;98535.12310481018;;;23.010605020218208;61.507820248722055
71642;BME280;60657;50.122;14.468;2022-10-16T11:07:31;98540.96743833489;;;22.767605096513307;62.05333028152896